Terminal Aerodrome Forecast
Issued by NWS

Home | Current Version | Previous Version | Text Only | Print | Product List | Glossary On
Versions: 1 2 3 4 5 6 7 8 9 10 11 12 13 14 15 16 17 18 19 20 21
000
FTUS44 KHGX 200810 AAB
TAFLBX
TAF AMD
KLBX 200810Z 2008/2106 00000KT 2SM BR OVC006
      TEMPO 2009/2013 1/4SM FG OVC002
     FM201500 13010KT P6SM FEW020 FEW080 SCT140
     FM210000 VRB05KT P6SM SCT070 BKN250=

USA.gov is the U.S. government's official web portal to all federal, state and local government web resources and services.